sensor_id;sensor_type;location;lat;lon;timestamp;temperature;humidity
19385;DHT22;9828;54.122;17.974;2023-02-12T00:03:57;0.70;99.90
19385;DHT22;9828;54.122;17.974;2023-02-12T00:09:20;0.60;99.90
19385;DHT22;9828;54.122;17.974;2023-02-12T00:14:41;0.60;99.90
19385;DHT22;9828;54.122;17.974;2023-02-12T00:20:03;0.60;99.90
19385;DHT22;9828;54.122;17.974;2023-02-12T00:25:25;0.60;99.90
19385;DHT22;9828;54.122;17.974;2023-02-12T00:30:46;0.60;99.90
19385;DHT22;9828;54.122;17.974;2023-02-12T00:36:08;0.60;99.90
19385;DHT22;9828;54.122;17.974;2023-02-12T00:41:30;0.50;99.90
19385;DHT22;9828;54.122;17.974;2023-02-12T00:46:52;0.50;99.90
19385;DHT22;9828;54.122;17.974;2023-02-12T00:52:14;0.50;99.90
19385;DHT22;9828;54.122;17.974;2023-02-12T00:57:35;0.40;99.90
19385;DHT22;9828;54.122;17.974;2023-02-12T01:02:56;0.40;99.90
19385;DHT22;9828;54.122;17.974;2023-02-12T01:08:18;0.20;99.90
19385;DHT22;9828;54.122;17.974;2023-02-12T01:13:39;0.10;99.90
19385;DHT22;9828;54.122;17.974;2023-02-12T01:19:02;0.10;99.90
19385;DHT22;9828;54.122;17.974;2023-02-12T01:24:24;0.10;99.90
19385;DHT22;9828;54.122;17.974;2023-02-12T01:29:45;0.00;99.90
19385;DHT22;9828;54.122;17.974;2023-02-12T01:35:08;-0.10;99.90
19385;DHT22;9828;54.122;17.974;2023-02-12T01:40:30;-0.10;99.90
19385;DHT22;9828;54.122;17.974;2023-02-12T01:45:51;-0.20;99.90
19385;DHT22;9828;54.122;17.974;2023-02-12T01:51:16;-0.20;99.90
19385;DHT22;9828;54.122;17.974;2023-02-12T01:56:40;-0.10;99.90
19385;DHT22;9828;54.122;17.974;2023-02-12T02:02:02;-0.10;99.90
19385;DHT22;9828;54.122;17.974;2023-02-12T02:07:23;-0.20;99.90
19385;DHT22;9828;54.122;17.974;2023-02-12T02:12:45;-0.30;99.90
19385;DHT22;9828;54.122;17.974;2023-02-12T02:35:40;-0.60;99.90
19385;DHT22;9828;54.122;17.974;2023-02-12T02:41:25;-0.60;99.90
19385;DHT22;9828;54.122;17.974;2023-02-12T02:46:51;-0.60;99.90
19385;DHT22;9828;54.122;17.974;2023-02-12T02:52:19;-0.70;99.90
19385;DHT22;9828;54.122;17.974;2023-02-12T02:57:56;-0.80;99.90
19385;DHT22;9828;54.122;17.974;2023-02-12T03:09:21;-0.90;99.90
19385;DHT22;9828;54.122;17.974;2023-02-12T03:14:51;-0.90;99.90
19385;DHT22;9828;54.122;17.974;2023-02-12T03:20:47;-0.90;99.90
19385;DHT22;9828;54.122;17.974;2023-02-12T03:26:17;-1.00;99.90
19385;DHT22;9828;54.122;17.974;2023-02-12T03:37:39;-0.90;99.90
19385;DHT22;9828;54.122;17.974;2023-02-12T03:43:13;-1.00;99.90
19385;DHT22;9828;54.122;17.974;2023-02-12T03:54:08;-1.00;99.90
19385;DHT22;9828;54.122;17.974;2023-02-12T03:59:34;-1.00;99.90
19385;DHT22;9828;54.122;17.974;2023-02-12T04:04:56;-1.00;99.90
19385;DHT22;9828;54.122;17.974;2023-02-12T04:10:21;-1.00;99.90
19385;DHT22;9828;54.122;17.974;2023-02-12T04:21:42;-1.00;99.90
19385;DHT22;9828;54.122;17.974;2023-02-12T04:27:33;-1.00;99.90
19385;DHT22;9828;54.122;17.974;2023-02-12T04:32:59;-1.10;99.90
19385;DHT22;9828;54.122;17.974;2023-02-12T04:38:34;-1.10;99.90
19385;DHT22;9828;54.122;17.974;2023-02-12T04:43:57;-1.30;99.90
19385;DHT22;9828;54.122;17.974;2023-02-12T04:49:27;-1.30;99.90
19385;DHT22;9828;54.122;17.974;2023-02-12T04:54:48;-1.30;99.90
19385;DHT22;9828;54.122;17.974;2023-02-12T05:00:12;-1.30;99.90
19385;DHT22;9828;54.122;17.974;2023-02-12T05:05:34;-1.30;99.90
19385;DHT22;9828;54.122;17.974;2023-02-12T05:10:55;-1.30;99.90
19385;DHT22;9828;54.122;17.974;2023-02-12T05:16:17;-1.40;99.90
19385;DHT22;9828;54.122;17.974;2023-02-12T05:21:39;-1.30;99.90
19385;DHT22;9828;54.122;17.974;2023-02-12T05:27:00;-1.30;99.90
19385;DHT22;9828;54.122;17.974;2023-02-12T05:32:22;-1.40;99.90
19385;DHT22;9828;54.122;17.974;2023-02-12T05:37:43;-1.40;99.90
19385;DHT22;9828;54.122;17.974;2023-02-12T05:43:05;-1.40;99.90
19385;DHT22;9828;54.122;17.974;2023-02-12T05:48:27;-1.40;99.90
19385;DHT22;9828;54.122;17.974;2023-02-12T05:53:50;-1.50;99.90
19385;DHT22;9828;54.122;17.974;2023-02-12T05:59:18;-1.50;99.90
19385;DHT22;9828;54.122;17.974;2023-02-12T06:04:40;-1.50;99.90
19385;DHT22;9828;54.122;17.974;2023-02-12T06:10:01;-1.50;99.90
19385;DHT22;9828;54.122;17.974;2023-02-12T06:15:23;-1.40;99.90
19385;DHT22;9828;54.122;17.974;2023-02-12T06:20:44;-1.40;99.90
19385;DHT22;9828;54.122;17.974;2023-02-12T06:26:06;-1.30;99.90
19385;DHT22;9828;54.122;17.974;2023-02-12T06:31:30;-1.20;99.90
19385;DHT22;9828;54.122;17.974;2023-02-12T06:36:52;-1.20;99.90
19385;DHT22;9828;54.122;17.974;2023-02-12T06:42:13;-1.10;99.90
19385;DHT22;9828;54.122;17.974;2023-02-12T06:47:34;-1.10;99.90
19385;DHT22;9828;54.122;17.974;2023-02-12T06:52:57;-0.90;99.90
19385;DHT22;9828;54.122;17.974;2023-02-12T06:58:19;-0.80;99.90
19385;DHT22;9828;54.122;17.974;2023-02-12T07:03:41;-0.80;99.90
19385;DHT22;9828;54.122;17.974;2023-02-12T07:09:04;-0.70;99.90
19385;DHT22;9828;54.122;17.974;2023-02-12T07:14:25;-0.60;99.90
19385;DHT22;9828;54.122;17.974;2023-02-12T07:19:48;-0.40;99.90
19385;DHT22;9828;54.122;17.974;2023-02-12T07:25:09;-0.10;99.90
19385;DHT22;9828;54.122;17.974;2023-02-12T07:30:31;1.10;99.90
19385;DHT22;9828;54.122;17.974;2023-02-12T07:35:52;2.00;99.90
19385;DHT22;9828;54.122;17.974;2023-02-12T07:46:47;2.80;99.90
19385;DHT22;9828;54.122;17.974;2023-02-12T07:52:09;3.10;99.90
19385;DHT22;9828;54.122;17.974;2023-02-12T07:57:34;3.40;99.90
19385;DHT22;9828;54.122;17.974;2023-02-12T08:02:55;3.60;99.90
19385;DHT22;9828;54.122;17.974;2023-02-12T08:08:16;3.80;99.90
19385;DHT22;9828;54.122;17.974;2023-02-12T08:13:38;4.00;99.90
19385;DHT22;9828;54.122;17.974;2023-02-12T08:19:00;4.20;99.90
19385;DHT22;9828;54.122;17.974;2023-02-12T08:24:35;4.40;99.90
19385;DHT22;9828;54.122;17.974;2023-02-12T08:29:58;4.50;99.90
19385;DHT22;9828;54.122;17.974;2023-02-12T08:35:19;4.40;99.90
19385;DHT22;9828;54.122;17.974;2023-02-12T08:40:40;4.60;99.90
19385;DHT22;9828;54.122;17.974;2023-02-12T08:46:07;4.90;99.90
19385;DHT22;9828;54.122;17.974;2023-02-12T08:51:33;5.20;99.90
19385;DHT22;9828;54.122;17.974;2023-02-12T08:56:58;5.30;99.90
19385;DHT22;9828;54.122;17.974;2023-02-12T09:02:19;5.70;99.90
19385;DHT22;9828;54.122;17.974;2023-02-12T09:07:41;5.80;99.90
19385;DHT22;9828;54.122;17.974;2023-02-12T09:13:02;6.00;99.90
19385;DHT22;9828;54.122;17.974;2023-02-12T09:18:24;5.90;99.90
19385;DHT22;9828;54.122;17.974;2023-02-12T09:23:46;5.70;99.90
19385;DHT22;9828;54.122;17.974;2023-02-12T09:29:08;5.50;99.90
19385;DHT22;9828;54.122;17.974;2023-02-12T09:34:29;5.40;99.90
19385;DHT22;9828;54.122;17.974;2023-02-12T09:39:50;5.20;99.90
19385;DHT22;9828;54.122;17.974;2023-02-12T09:50:52;5.00;99.90
19385;DHT22;9828;54.122;17.974;2023-02-12T09:56:16;5.00;99.90
19385;DHT22;9828;54.122;17.974;2023-02-12T10:01:41;5.10;99.90
19385;DHT22;9828;54.122;17.974;2023-02-12T10:13:03;5.30;99.90
19385;DHT22;9828;54.122;17.974;2023-02-12T10:29:50;5.70;99.90
19385;DHT22;9828;54.122;17.974;2023-02-12T10:35:13;5.60;99.90
19385;DHT22;9828;54.122;17.974;2023-02-12T10:40:35;5.60;99.90
19385;DHT22;9828;54.122;17.974;2023-02-12T10:45:58;5.20;99.90
19385;DHT22;9828;54.122;17.974;2023-02-12T10:52:14;4.90;99.90
19385;DHT22;9828;54.122;17.974;2023-02-12T11:02:37;4.20;99.90
19385;DHT22;9828;54.122;17.974;2023-02-12T11:07:59;3.90;99.90
19385;DHT22;9828;54.122;17.974;2023-02-12T11:13:25;3.80;99.90
19385;DHT22;9828;54.122;17.974;2023-02-12T11:19:00;3.60;99.90
19385;DHT22;9828;54.122;17.974;2023-02-12T11:24:33;3.30;99.90
19385;DHT22;9828;54.122;17.974;2023-02-12T11:30:16;3.20;99.90
19385;DHT22;9828;54.122;17.974;2023-02-12T11:35:51;3.10;99.90
19385;DHT22;9828;54.122;17.974;2023-02-12T11:41:35;3.10;99.90
19385;DHT22;9828;54.122;17.974;2023-02-12T11:47:03;3.10;99.90
19385;DHT22;9828;54.122;17.974;2023-02-12T11:52:31;3.20;99.90
19385;DHT22;9828;54.122;17.974;2023-02-12T11:58:01;3.20;99.90
19385;DHT22;9828;54.122;17.974;2023-02-12T12:14:35;3.30;99.90
19385;DHT22;9828;54.122;17.974;2023-02-12T12:20:22;3.30;99.90
19385;DHT22;9828;54.122;17.974;2023-02-12T12:25:48;3.30;99.90
19385;DHT22;9828;54.122;17.974;2023-02-12T12:31:30;3.40;99.90
19385;DHT22;9828;54.122;17.974;2023-02-12T12:37:13;3.40;99.90
19385;DHT22;9828;54.122;17.974;2023-02-12T12:43:02;3.50;99.90
19385;DHT22;9828;54.122;17.974;2023-02-12T13:05:56;3.60;99.90
19385;DHT22;9828;54.122;17.974;2023-02-12T13:11:43;3.50;99.90
19385;DHT22;9828;54.122;17.974;2023-02-12T13:28:13;3.60;99.90
19385;DHT22;9828;54.122;17.974;2023-02-12T13:33:46;3.60;99.90
19385;DHT22;9828;54.122;17.974;2023-02-12T13:56:05;3.80;99.90
19385;DHT22;9828;54.122;17.974;2023-02-12T14:18:03;3.90;99.90
19385;DHT22;9828;54.122;17.974;2023-02-12T14:23:27;3.90;99.90
19385;DHT22;9828;54.122;17.974;2023-02-12T14:28:59;3.80;99.90
19385;DHT22;9828;54.122;17.974;2023-02-12T14:39:43;3.90;99.90
19385;DHT22;9828;54.122;17.974;2023-02-12T14:45:26;3.90;99.90
19385;DHT22;9828;54.122;17.974;2023-02-12T14:50:48;3.90;99.90
19385;DHT22;9828;54.122;17.974;2023-02-12T14:56:12;3.90;99.90
19385;DHT22;9828;54.122;17.974;2023-02-12T15:01:35;4.00;99.90
19385;DHT22;9828;54.122;17.974;2023-02-12T15:07:06;4.00;99.90
19385;DHT22;9828;54.122;17.974;2023-02-12T15:12:30;4.00;99.90
19385;DHT22;9828;54.122;17.974;2023-02-12T15:17:57;4.00;99.90
19385;DHT22;9828;54.122;17.974;2023-02-12T15:28:53;4.10;99.90
19385;DHT22;9828;54.122;17.974;2023-02-12T15:34:19;4.10;99.90
19385;DHT22;9828;54.122;17.974;2023-02-12T15:39:43;4.10;99.90
19385;DHT22;9828;54.122;17.974;2023-02-12T15:51:28;4.10;99.90
19385;DHT22;9828;54.122;17.974;2023-02-12T15:56:29;4.10;99.90
19385;DHT22;9828;54.122;17.974;2023-02-12T16:02:02;4.10;99.90
19385;DHT22;9828;54.122;17.974;2023-02-12T16:07:35;4.10;99.90
19385;DHT22;9828;54.122;17.974;2023-02-12T16:12:57;4.00;99.90
19385;DHT22;9828;54.122;17.974;2023-02-12T16:18:24;4.10;99.90
19385;DHT22;9828;54.122;17.974;2023-02-12T16:23:47;4.10;99.90
19385;DHT22;9828;54.122;17.974;2023-02-12T16:29:15;4.10;99.90
19385;DHT22;9828;54.122;17.974;2023-02-12T16:34:37;4.10;99.90
19385;DHT22;9828;54.122;17.974;2023-02-12T16:45:38;4.10;99.90
19385;DHT22;9828;54.122;17.974;2023-02-12T16:51:00;4.10;99.90
19385;DHT22;9828;54.122;17.974;2023-02-12T16:56:32;4.10;99.90
19385;DHT22;9828;54.122;17.974;2023-02-12T17:02:05;4.10;99.90
19385;DHT22;9828;54.122;17.974;2023-02-12T17:07:30;4.20;99.90
19385;DHT22;9828;54.122;17.974;2023-02-12T17:12:51;4.20;99.90
19385;DHT22;9828;54.122;17.974;2023-02-12T17:18:12;4.20;99.90
19385;DHT22;9828;54.122;17.974;2023-02-12T17:23:34;4.30;99.90
19385;DHT22;9828;54.122;17.974;2023-02-12T17:28:55;4.30;99.90
19385;DHT22;9828;54.122;17.974;2023-02-12T17:34:25;4.40;99.90
19385;DHT22;9828;54.122;17.974;2023-02-12T17:39:48;4.40;99.90
19385;DHT22;9828;54.122;17.974;2023-02-12T17:45:09;4.40;99.90
19385;DHT22;9828;54.122;17.974;2023-02-12T17:50:32;4.50;99.90
19385;DHT22;9828;54.122;17.974;2023-02-12T17:55:53;4.50;99.90
19385;DHT22;9828;54.122;17.974;2023-02-12T18:01:17;4.50;99.90
19385;DHT22;9828;54.122;17.974;2023-02-12T18:06:38;4.50;99.90
19385;DHT22;9828;54.122;17.974;2023-02-12T18:11:59;4.60;99.90
19385;DHT22;9828;54.122;17.974;2023-02-12T18:17:20;4.50;99.90
19385;DHT22;9828;54.122;17.974;2023-02-12T18:22:42;4.60;99.90
19385;DHT22;9828;54.122;17.974;2023-02-12T18:28:05;4.60;99.90
19385;DHT22;9828;54.122;17.974;2023-02-12T18:33:26;4.60;99.90
19385;DHT22;9828;54.122;17.974;2023-02-12T18:38:49;4.70;99.90
19385;DHT22;9828;54.122;17.974;2023-02-12T18:44:13;4.70;99.90
19385;DHT22;9828;54.122;17.974;2023-02-12T18:49:35;4.70;99.90
19385;DHT22;9828;54.122;17.974;2023-02-12T18:54:56;4.70;99.90
19385;DHT22;9828;54.122;17.974;2023-02-12T19:00:18;4.80;99.90
19385;DHT22;9828;54.122;17.974;2023-02-12T19:05:40;4.80;99.90
19385;DHT22;9828;54.122;17.974;2023-02-12T19:11:01;4.80;99.90
19385;DHT22;9828;54.122;17.974;2023-02-12T19:16:23;4.70;99.90
19385;DHT22;9828;54.122;17.974;2023-02-12T19:21:45;4.80;99.90
19385;DHT22;9828;54.122;17.974;2023-02-12T19:27:06;4.90;99.90
19385;DHT22;9828;54.122;17.974;2023-02-12T19:32:27;4.90;99.90
19385;DHT22;9828;54.122;17.974;2023-02-12T19:37:48;4.90;99.90
19385;DHT22;9828;54.122;17.974;2023-02-12T19:43:10;4.90;99.90
19385;DHT22;9828;54.122;17.974;2023-02-12T19:48:31;4.90;99.90
19385;DHT22;9828;54.122;17.974;2023-02-12T19:53:53;4.80;99.90
19385;DHT22;9828;54.122;17.974;2023-02-12T19:59:16;4.90;99.90
19385;DHT22;9828;54.122;17.974;2023-02-12T20:04:38;4.90;99.90
19385;DHT22;9828;54.122;17.974;2023-02-12T20:09:59;4.90;99.90
19385;DHT22;9828;54.122;17.974;2023-02-12T20:15:20;4.90;99.90
19385;DHT22;9828;54.122;17.974;2023-02-12T20:20:45;5.00;99.90
19385;DHT22;9828;54.122;17.974;2023-02-12T20:26:08;5.00;99.90
19385;DHT22;9828;54.122;17.974;2023-02-12T20:31:33;5.00;99.90
19385;DHT22;9828;54.122;17.974;2023-02-12T20:36:55;5.00;99.90
19385;DHT22;9828;54.122;17.974;2023-02-12T20:42:16;5.00;99.90
19385;DHT22;9828;54.122;17.974;2023-02-12T20:47:37;5.20;99.90
19385;DHT22;9828;54.122;17.974;2023-02-12T20:52:59;5.00;99.90
19385;DHT22;9828;54.122;17.974;2023-02-12T20:58:20;5.00;99.90
19385;DHT22;9828;54.122;17.974;2023-02-12T21:03:42;5.00;99.90
19385;DHT22;9828;54.122;17.974;2023-02-12T21:09:05;5.00;99.90
19385;DHT22;9828;54.122;17.974;2023-02-12T21:14:26;4.90;99.90
19385;DHT22;9828;54.122;17.974;2023-02-12T21:19:48;4.80;99.90
19385;DHT22;9828;54.122;17.974;2023-02-12T21:25:09;4.80;99.90
19385;DHT22;9828;54.122;17.974;2023-02-12T21:30:31;4.70;99.90
19385;DHT22;9828;54.122;17.974;2023-02-12T21:35:52;4.70;99.90
19385;DHT22;9828;54.122;17.974;2023-02-12T21:41:19;4.60;99.90
19385;DHT22;9828;54.122;17.974;2023-02-12T21:46:42;4.60;99.90
19385;DHT22;9828;54.122;17.974;2023-02-12T21:52:04;4.60;99.90
19385;DHT22;9828;54.122;17.974;2023-02-12T21:57:26;4.70;99.90
19385;DHT22;9828;54.122;17.974;2023-02-12T22:02:47;4.70;99.90
19385;DHT22;9828;54.122;17.974;2023-02-12T22:08:09;4.70;99.90
19385;DHT22;9828;54.122;17.974;2023-02-12T22:13:30;4.70;99.90
19385;DHT22;9828;54.122;17.974;2023-02-12T22:18:54;4.90;99.90
19385;DHT22;9828;54.122;17.974;2023-02-12T22:24:16;5.00;99.90
19385;DHT22;9828;54.122;17.974;2023-02-12T22:29:37;5.00;99.90
19385;DHT22;9828;54.122;17.974;2023-02-12T22:34:58;5.00;99.90
19385;DHT22;9828;54.122;17.974;2023-02-12T22:40:21;5.00;99.90
19385;DHT22;9828;54.122;17.974;2023-02-12T22:45:42;5.10;99.90
19385;DHT22;9828;54.122;17.974;2023-02-12T22:51:12;5.10;99.90
19385;DHT22;9828;54.122;17.974;2023-02-12T22:56:34;5.00;99.90
19385;DHT22;9828;54.122;17.974;2023-02-12T23:01:55;4.90;99.90
19385;DHT22;9828;54.122;17.974;2023-02-12T23:07:18;4.90;99.90
19385;DHT22;9828;54.122;17.974;2023-02-12T23:12:40;4.80;99.90
19385;DHT22;9828;54.122;17.974;2023-02-12T23:18:01;4.80;99.90
19385;DHT22;9828;54.122;17.974;2023-02-12T23:23:24;4.80;99.90
19385;DHT22;9828;54.122;17.974;2023-02-12T23:28:45;4.70;99.90
19385;DHT22;9828;54.122;17.974;2023-02-12T23:34:06;4.70;99.90
19385;DHT22;9828;54.122;17.974;2023-02-12T23:39:28;4.70;99.90
19385;DHT22;9828;54.122;17.974;2023-02-12T23:44:49;4.80;99.90
19385;DHT22;9828;54.122;17.974;2023-02-12T23:50:10;4.80;99.90
19385;DHT22;9828;54.122;17.974;2023-02-12T23:55:35;4.70;99.90
